createdAt,value
2022-11-28T00:01:41.478Z,32.30
2022-11-28T00:04:12.608Z,30.67
2022-11-28T00:06:42.565Z,33.03
2022-11-28T00:09:11.663Z,31.93
2022-11-28T00:11:41.175Z,33.00
2022-11-28T00:14:10.362Z,31.87
2022-11-28T00:16:38.773Z,31.70
2022-11-28T00:19:08.172Z,31.90
2022-11-28T00:21:38.151Z,32.10
2022-11-28T00:24:07.799Z,33.43
2022-11-28T00:26:38.600Z,31.53
2022-11-28T00:29:08.724Z,31.20
2022-11-28T00:31:43.037Z,33.07
2022-11-28T00:34:13.744Z,30.77
2022-11-28T00:36:45.536Z,34.37
2022-11-28T00:39:14.528Z,31.87
2022-11-28T00:41:43.025Z,32.07
2022-11-28T00:44:12.098Z,32.03
2022-11-28T00:46:40.656Z,32.30
2022-11-28T00:49:10.080Z,31.60
2022-11-28T00:51:38.782Z,31.20
2022-11-28T00:54:09.189Z,31.87
2022-11-28T00:56:39.209Z,31.50
2022-11-28T00:59:08.637Z,31.07
2022-11-28T01:01:42.412Z,31.43
2022-11-28T01:04:16.079Z,32.13
2022-11-28T01:06:48.838Z,33.17
2022-11-28T01:09:25.868Z,32.77
2022-11-28T01:11:55.290Z,32.60
2022-11-28T01:14:25.208Z,32.57
2022-11-28T01:16:53.619Z,32.23
2022-11-28T01:19:22.241Z,32.10
2022-11-28T01:21:50.644Z,30.73
2022-11-28T01:24:20.548Z,31.53
2022-11-28T01:26:48.951Z,31.93
2022-11-28T01:29:17.747Z,32.23
2022-11-28T01:31:46.432Z,33.27
2022-11-28T01:34:14.818Z,33.20
2022-11-28T01:36:43.174Z,31.77
2022-11-28T01:39:12.469Z,31.83
2022-11-28T01:41:42.284Z,32.03
2022-11-28T01:44:49.159Z,32.43
2022-11-28T01:47:23.036Z,31.60
2022-11-28T01:49:53.152Z,32.30
2022-11-28T01:52:22.944Z,30.87
2022-11-28T01:54:56.387Z,31.50
2022-11-28T01:57:28.309Z,30.57
2022-11-28T02:00:03.511Z,30.73
2022-11-28T02:02:36.465Z,31.80
2022-11-28T02:05:06.193Z,32.57
2022-11-28T02:07:35.226Z,29.67
2022-11-28T02:10:05.078Z,30.70
2022-11-28T02:12:47.988Z,30.87
2022-11-28T02:15:35.624Z,30.73
2022-11-28T02:18:19.549Z,30.23
2022-11-28T02:21:07.432Z,30.50
2022-11-28T02:23:54.867Z,30.23
2022-11-28T02:26:45.902Z,30.03
2022-11-28T02:29:45.233Z,30.83
2022-11-28T02:32:26.544Z,30.30
2022-11-28T02:35:00.775Z,29.17
2022-11-28T02:37:36.373Z,30.23
2022-11-28T02:40:15.393Z,29.07
2022-11-28T02:42:55.722Z,29.27
2022-11-28T02:45:30.901Z,28.63
2022-11-28T02:48:05.179Z,30.17
2022-11-28T02:50:39.599Z,28.73
2022-11-28T02:53:11.970Z,29.43
2022-11-28T02:55:42.336Z,30.70
2022-11-28T02:58:11.646Z,32.73
2022-11-28T03:00:44.217Z,33.40
2022-11-28T03:03:43.144Z,32.03
2022-11-28T03:06:19.369Z,31.57
2022-11-28T03:09:01.162Z,33.53
2022-11-28T03:11:42.923Z,31.77
2022-11-28T03:14:24.262Z,34.87
2022-11-28T03:17:03.172Z,36.03
2022-11-28T03:19:36.365Z,34.20
2022-11-28T03:22:12.611Z,33.93
2022-11-28T03:24:48.119Z,33.97
2022-11-28T03:27:24.885Z,36.40
2022-11-28T03:29:56.471Z,33.63
2022-11-28T03:32:27.406Z,32.37
2022-11-28T03:35:08.715Z,31.40
2022-11-28T03:37:41.088Z,29.40
2022-11-28T03:40:15.354Z,35.43
2022-11-28T03:42:47.119Z,35.67
2022-11-28T03:45:21.393Z,31.97
2022-11-28T03:47:57.258Z,29.97
2022-11-28T03:50:32.842Z,30.63
2022-11-28T03:53:07.134Z,31.73
2022-11-28T03:55:41.742Z,30.40
2022-11-28T03:58:15.672Z,27.87
2022-11-28T04:00:52.808Z,30.70
2022-11-28T04:03:28.378Z,29.03
2022-11-28T04:06:04.088Z,28.47
2022-11-28T04:08:38.163Z,28.87
2022-11-28T04:11:10.621Z,27.70
2022-11-28T04:13:44.185Z,31.10
2022-11-28T04:16:20.319Z,30.33
2022-11-28T04:18:55.798Z,28.90
2022-11-28T04:21:32.266Z,28.30
2022-11-28T04:24:05.037Z,29.23
2022-11-28T04:26:36.484Z,31.90
2022-11-28T04:29:09.466Z,29.80
2022-11-28T04:31:39.793Z,28.90
2022-11-28T04:34:12.183Z,30.47
2022-11-28T04:36:45.167Z,28.17
2022-11-28T04:39:16.921Z,30.33
2022-11-28T04:41:50.576Z,29.87
2022-11-28T04:44:23.419Z,30.20
2022-11-28T04:46:56.058Z,28.13
2022-11-28T04:49:25.180Z,30.93
2022-11-28T04:52:01.080Z,30.27
2022-11-28T04:54:35.304Z,28.60
2022-11-28T04:57:13.215Z,31.23
2022-11-28T04:59:43.431Z,37.77
2022-11-28T05:02:14.849Z,40.40
2022-11-28T05:04:45.579Z,37.37
2022-11-28T05:07:15.516Z,34.23
2022-11-28T05:09:43.984Z,33.20
2022-11-28T05:12:12.380Z,30.60
2022-11-28T05:14:41.849Z,32.90
2022-11-28T05:17:13.789Z,34.13
2022-11-28T05:19:42.240Z,37.23
2022-11-28T05:22:10.615Z,37.67
2022-11-28T05:24:40.479Z,42.50
2022-11-28T05:27:09.064Z,42.53
2022-11-28T05:29:37.443Z,45.83
2022-11-28T05:32:06.353Z,45.27
2022-11-28T05:34:34.980Z,38.03
2022-11-28T05:37:03.588Z,38.10
2022-11-28T05:39:32.068Z,35.97
2022-11-28T05:42:01.861Z,34.87
2022-11-28T05:44:30.257Z,38.33
2022-11-28T05:46:58.698Z,37.47
2022-11-28T05:49:29.077Z,38.23
2022-11-28T05:51:58.168Z,35.40
2022-11-28T05:54:26.976Z,32.63
2022-11-28T05:56:55.438Z,32.13
2022-11-28T05:59:25.405Z,34.47
2022-11-28T06:01:53.859Z,30.53
2022-11-28T06:04:22.284Z,34.30
2022-11-28T06:06:51.591Z,34.77
2022-11-28T06:09:25.529Z,36.17
2022-11-28T06:11:54.473Z,32.90
2022-11-28T06:14:22.848Z,32.67
2022-11-28T06:16:52.713Z,32.07
2022-11-28T06:19:21.209Z,32.27
2022-11-28T06:21:51.677Z,32.17
2022-11-28T06:24:20.668Z,29.83
2022-11-28T06:26:49.050Z,29.67
2022-11-28T06:29:17.442Z,30.50
2022-11-28T06:31:45.944Z,31.10
2022-11-28T06:34:15.755Z,30.03
2022-11-28T06:36:45.436Z,30.93
2022-11-28T06:39:15.463Z,30.13
2022-11-28T06:41:44.054Z,31.47
2022-11-28T06:44:15.449Z,31.00
2022-11-28T06:46:44.454Z,33.60
2022-11-28T06:49:13.598Z,34.50
2022-11-28T06:51:45.981Z,35.03
2022-11-28T06:54:14.414Z,39.03
2022-11-28T06:56:43.380Z,35.20
2022-11-28T06:59:13.509Z,34.33
2022-11-28T07:01:42.054Z,35.77
2022-11-28T07:04:11.134Z,34.97
2022-11-28T07:06:39.705Z,34.73
2022-11-28T07:09:09.483Z,34.03
2022-11-28T07:11:37.976Z,33.70
2022-11-28T07:14:06.428Z,34.80
2022-11-28T07:16:35.465Z,35.47
2022-11-28T07:19:04.898Z,34.57
2022-11-28T07:21:33.489Z,34.33
2022-11-28T07:24:02.724Z,36.87
2022-11-28T07:26:32.536Z,36.50
2022-11-28T07:29:00.924Z,34.57
2022-11-28T07:31:32.527Z,35.47
2022-11-28T07:34:03.320Z,36.43
2022-11-28T07:36:31.923Z,37.30
2022-11-28T07:39:02.271Z,38.17
2022-11-28T07:41:32.281Z,35.07
2022-11-28T07:44:02.159Z,36.37
2022-11-28T07:46:32.040Z,35.40
2022-11-28T07:49:00.848Z,35.93
2022-11-28T07:51:31.570Z,37.33
2022-11-28T07:54:00.203Z,36.17
2022-11-28T07:56:50.153Z,36.60
2022-11-28T07:59:20.693Z,39.37
2022-11-28T08:01:49.134Z,41.20
2022-11-28T08:04:17.520Z,41.07
2022-11-28T08:06:45.921Z,39.23
2022-11-28T08:09:14.308Z,36.37
2022-11-28T08:11:43.618Z,38.17
2022-11-28T08:14:12.073Z,43.57
2022-11-28T08:16:45.366Z,37.93
2022-11-28T08:19:14.046Z,34.87
2022-11-28T08:21:42.554Z,35.27
2022-11-28T08:24:12.892Z,34.63
2022-11-28T08:26:41.259Z,34.60
2022-11-28T08:29:09.691Z,34.33
2022-11-28T08:31:41.550Z,33.83
2022-11-28T08:34:12.866Z,34.20
2022-11-28T08:36:43.595Z,33.73
2022-11-28T08:39:28.297Z,31.20
2022-11-28T08:41:59.052Z,31.87
2022-11-28T08:44:30.476Z,31.80
2022-11-28T08:47:00.746Z,33.73
2022-11-28T08:49:29.168Z,33.30
2022-11-28T08:51:57.543Z,33.67
2022-11-28T08:54:26.031Z,32.70
2022-11-28T08:56:54.353Z,35.00
2022-11-28T08:59:22.997Z,35.60
2022-11-28T09:01:53.413Z,30.97
2022-11-28T09:04:24.032Z,34.03
2022-11-28T09:06:53.081Z,34.43
2022-11-28T09:09:22.097Z,37.37
2022-11-28T09:11:50.464Z,38.80
2022-11-28T09:14:18.920Z,40.47
2022-11-28T09:16:47.440Z,33.23
2022-11-28T09:19:15.890Z,39.47
2022-11-28T09:21:45.699Z,46.90
2022-11-28T09:24:14.241Z,39.53
2022-11-28T09:26:43.641Z,42.83
2022-11-28T09:29:11.971Z,41.57
2022-11-28T09:31:45.815Z,37.43
2022-11-28T09:34:15.605Z,32.43
2022-11-28T09:36:46.101Z,31.03
2022-11-28T09:39:14.549Z,29.23
2022-11-28T09:41:52.400Z,28.63
2022-11-28T09:44:27.105Z,27.03
2022-11-28T09:47:00.182Z,27.70
2022-11-28T09:49:40.702Z,27.57
2022-11-28T09:52:26.368Z,26.70
2022-11-28T09:55:04.025Z,27.03
2022-11-28T09:57:37.686Z,28.00
2022-11-28T10:00:07.466Z,27.53
2022-11-28T10:02:40.701Z,26.57
2022-11-28T10:05:19.020Z,26.57
2022-11-28T10:08:03.769Z,25.13
2022-11-28T10:10:41.595Z,26.83
2022-11-28T10:13:17.717Z,25.77
2022-11-28T10:15:53.460Z,26.73
2022-11-28T10:18:35.670Z,25.13
2022-11-28T10:21:12.132Z,25.40
2022-11-28T10:23:45.425Z,23.87
2022-11-28T10:26:22.273Z,23.53
2022-11-28T10:28:55.096Z,22.83
2022-11-28T10:31:36.554Z,23.30
2022-11-28T10:34:09.957Z,22.50
2022-11-28T10:36:53.572Z,24.30
2022-11-28T10:39:23.529Z,22.13
2022-11-28T10:42:13.940Z,23.07
2022-11-28T10:44:55.068Z,22.83
2022-11-28T10:47:45.667Z,21.23
2022-11-28T10:50:21.334Z,20.57
2022-11-28T10:52:56.618Z,21.47
2022-11-28T10:55:36.620Z,21.93
2022-11-28T10:58:14.276Z,20.63
2022-11-28T11:00:45.708Z,20.43
2022-11-28T11:03:18.272Z,18.70
2022-11-28T11:05:46.946Z,18.37
2022-11-28T11:08:21.714Z,18.93
2022-11-28T11:10:53.454Z,17.13
2022-11-28T11:13:24.779Z,17.17
2022-11-28T11:15:59.431Z,18.00
2022-11-28T11:18:30.291Z,17.27
2022-11-28T11:21:17.254Z,16.23
2022-11-28T11:23:46.059Z,16.20
2022-11-28T11:26:27.513Z,15.93
2022-11-28T11:28:57.556Z,15.80
2022-11-28T11:31:29.118Z,15.60
2022-11-28T11:34:04.736Z,15.43
2022-11-28T11:36:36.177Z,14.47
2022-11-28T11:39:17.190Z,15.07
2022-11-28T11:41:48.989Z,14.30
2022-11-28T11:44:35.625Z,14.47
2022-11-28T11:47:06.361Z,12.80
2022-11-28T11:49:37.490Z,13.13
2022-11-28T11:52:09.044Z,14.03
2022-11-28T11:54:37.768Z,15.13
2022-11-28T11:57:31.965Z,14.17
2022-11-28T12:00:04.833Z,14.43
2022-11-28T12:02:37.861Z,13.77
2022-11-28T12:05:13.168Z,13.27
2022-11-28T12:07:50.179Z,13.80
2022-11-28T12:10:22.211Z,13.53
2022-11-28T12:12:52.028Z,13.10
2022-11-28T12:15:32.672Z,12.93
2022-11-28T12:18:15.943Z,13.20
2022-11-28T12:20:59.898Z,12.67
2022-11-28T12:23:44.976Z,13.23
2022-11-28T12:26:22.263Z,13.20
2022-11-28T12:29:09.488Z,12.93
2022-11-28T12:31:47.765Z,13.40
2022-11-28T12:34:28.796Z,13.13
2022-11-28T12:37:05.882Z,12.77
2022-11-28T12:39:46.958Z,13.37
2022-11-28T12:42:30.367Z,14.50
2022-11-28T12:45:27.315Z,12.97
2022-11-28T12:48:02.488Z,13.27
2022-11-28T12:50:35.658Z,12.73
2022-11-28T12:53:23.738Z,13.30
2022-11-28T12:55:58.014Z,12.57
2022-11-28T12:58:31.310Z,11.87
2022-11-28T13:01:20.381Z,12.23
2022-11-28T13:04:00.908Z,10.73
2022-11-28T13:06:39.040Z,11.17
2022-11-28T13:09:27.290Z,11.47
2022-11-28T13:12:08.528Z,10.90
2022-11-28T13:14:48.013Z,11.83
2022-11-28T13:17:32.037Z,12.83
2022-11-28T13:20:10.009Z,12.20
2022-11-28T13:22:47.534Z,11.83
2022-11-28T13:25:26.338Z,12.10
2022-11-28T13:28:04.662Z,12.17
2022-11-28T13:30:38.020Z,11.37
2022-11-28T13:33:27.426Z,10.97
2022-11-28T13:35:56.429Z,10.80
2022-11-28T13:38:36.192Z,10.57
2022-11-28T13:41:35.385Z,11.10
2022-11-28T13:44:05.372Z,11.23
2022-11-28T13:46:35.703Z,10.70
2022-11-28T13:49:14.766Z,11.90
2022-11-28T13:51:44.033Z,11.57
2022-11-28T13:54:49.201Z,11.07
2022-11-28T13:57:28.139Z,11.07
2022-11-28T14:00:01.908Z,11.60
2022-11-28T14:02:42.175Z,12.30
2022-11-28T14:05:29.516Z,12.27
2022-11-28T14:07:59.024Z,13.07
2022-11-28T14:11:02.652Z,12.63
2022-11-28T14:14:09.195Z,11.00
2022-11-28T14:16:53.251Z,11.90
2022-11-28T14:19:34.258Z,12.20
2022-11-28T14:22:19.322Z,12.03
2022-11-28T14:25:00.902Z,12.37
2022-11-28T14:27:32.408Z,11.77
2022-11-28T14:30:02.526Z,11.20
2022-11-28T14:32:38.126Z,11.73
2022-11-28T14:35:16.808Z,11.30
2022-11-28T14:37:57.827Z,12.27
2022-11-28T14:40:59.644Z,12.07
2022-11-28T14:43:29.950Z,13.43
2022-11-28T14:46:34.921Z,12.23
2022-11-28T14:49:20.555Z,12.47
2022-11-28T14:52:30.998Z,13.57
2022-11-28T14:54:59.027Z,15.17
2022-11-28T14:57:30.833Z,15.00
2022-11-28T15:00:02.249Z,14.07
2022-11-28T15:03:05.627Z,14.20
2022-11-28T15:05:41.237Z,14.03
2022-11-28T15:08:35.753Z,14.80
2022-11-28T15:11:26.354Z,15.20
2022-11-28T15:14:17.036Z,15.73
2022-11-28T15:16:50.754Z,17.47
2022-11-28T15:19:25.791Z,17.57
2022-11-28T15:21:55.611Z,20.53
2022-11-28T15:24:26.534Z,20.93
2022-11-28T15:26:58.199Z,22.20
2022-11-28T15:29:28.758Z,22.03
2022-11-28T15:31:59.340Z,20.80
2022-11-28T15:34:30.365Z,22.00
2022-11-28T15:37:00.841Z,22.03
2022-11-28T15:39:35.102Z,20.67
2022-11-28T15:42:07.113Z,21.60
2022-11-28T15:44:37.942Z,21.90
2022-11-28T15:47:07.107Z,22.33
2022-11-28T15:49:38.713Z,22.27
2022-11-28T15:52:07.122Z,23.40
2022-11-28T15:54:38.716Z,21.43
2022-11-28T15:57:18.361Z,21.40
2022-11-28T15:59:47.006Z,22.57
2022-11-28T16:02:24.144Z,21.60
2022-11-28T16:04:56.561Z,22.50
2022-11-28T16:07:25.154Z,23.27
2022-11-28T16:10:00.802Z,21.10
2022-11-28T16:12:31.091Z,20.97
2022-11-28T16:15:03.549Z,20.67
2022-11-28T16:17:34.435Z,20.93
2022-11-28T16:20:04.800Z,21.50
2022-11-28T16:22:37.419Z,21.13
2022-11-28T16:25:22.804Z,20.27
2022-11-28T16:27:54.292Z,22.27
2022-11-28T16:30:29.075Z,22.40
2022-11-28T16:32:58.193Z,24.07
2022-11-28T16:35:28.890Z,21.47
2022-11-28T16:38:07.137Z,23.90
2022-11-28T16:40:35.612Z,25.57
2022-11-28T16:43:06.442Z,28.23
2022-11-28T16:45:35.316Z,25.93
2022-11-28T16:48:08.933Z,25.80
2022-11-28T16:50:38.269Z,28.73
2022-11-28T16:53:06.930Z,31.60
2022-11-28T16:55:44.528Z,37.83
2022-11-28T16:58:20.142Z,36.07
2022-11-28T17:01:01.501Z,36.27
2022-11-28T17:03:48.996Z,41.70
2022-11-28T17:06:22.752Z,35.13
2022-11-28T17:08:51.939Z,28.57
2022-11-28T17:11:23.354Z,26.30
2022-11-28T17:13:57.274Z,23.27
2022-11-28T17:16:28.130Z,23.53
2022-11-28T17:18:56.680Z,24.60
2022-11-28T17:21:32.537Z,26.63
2022-11-28T17:24:01.473Z,24.33
2022-11-28T17:26:30.009Z,24.40
2022-11-28T17:29:00.629Z,21.80
2022-11-28T17:31:29.094Z,20.43
2022-11-28T17:33:57.535Z,18.77
2022-11-28T17:36:25.994Z,19.43
2022-11-28T17:38:54.395Z,19.80
2022-11-28T17:41:23.649Z,20.90
2022-11-28T17:43:52.030Z,21.60
2022-11-28T17:46:22.302Z,19.77
2022-11-28T17:48:50.756Z,21.07
2022-11-28T17:51:20.484Z,21.40
2022-11-28T17:53:49.063Z,22.63
2022-11-28T17:56:17.492Z,20.53
2022-11-28T17:58:46.944Z,21.40
2022-11-28T18:01:19.697Z,23.27
2022-11-28T18:03:49.480Z,28.53
2022-11-28T18:06:18.911Z,35.67
2022-11-28T18:08:49.299Z,33.00
2022-11-28T18:11:18.706Z,28.33
2022-11-28T18:13:47.203Z,25.30
2022-11-28T18:16:17.850Z,26.23
2022-11-28T18:18:46.786Z,26.70
2022-11-28T18:21:18.000Z,26.60
2022-11-28T18:23:49.599Z,27.40
2022-11-28T18:26:20.915Z,32.20
2022-11-28T18:28:49.397Z,32.03
2022-11-28T18:31:20.116Z,35.03
2022-11-28T18:33:48.673Z,33.87
2022-11-28T18:36:20.504Z,26.37
2022-11-28T18:38:50.204Z,25.43
2022-11-28T18:41:19.612Z,24.87
2022-11-28T18:43:48.095Z,23.60
2022-11-28T18:46:19.269Z,23.67
2022-11-28T18:48:48.949Z,25.77
2022-11-28T18:51:20.867Z,28.10
2022-11-28T18:53:50.905Z,28.10
2022-11-28T18:56:20.208Z,24.37
2022-11-28T18:58:51.987Z,23.53
2022-11-28T19:01:23.543Z,24.63
2022-11-28T19:03:53.695Z,22.57
2022-11-28T19:06:23.903Z,23.10
2022-11-28T19:08:55.347Z,23.77
2022-11-28T19:11:24.062Z,25.47
2022-11-28T19:13:53.938Z,25.67
2022-11-28T19:16:24.949Z,26.53
2022-11-28T19:18:53.895Z,24.57
2022-11-28T19:21:25.760Z,25.57
2022-11-28T19:23:56.501Z,25.20
2022-11-28T19:26:27.208Z,26.67
2022-11-28T19:28:56.709Z,26.10
2022-11-28T19:31:28.433Z,25.60
2022-11-28T19:34:01.140Z,73.03
2022-11-28T19:36:33.554Z,95.83
2022-11-28T19:39:02.550Z,60.67
2022-11-28T19:41:31.270Z,59.13
2022-11-28T19:43:59.903Z,39.17
2022-11-28T19:46:35.365Z,31.97
2022-11-28T19:49:04.888Z,30.23
2022-11-28T19:51:35.785Z,28.07
2022-11-28T19:54:04.834Z,28.40
2022-11-28T19:56:35.202Z,70.83
2022-11-28T19:59:06.158Z,62.10
2022-11-28T20:01:35.760Z,91.90
2022-11-28T20:04:04.721Z,86.43
2022-11-28T20:06:36.007Z,42.63
2022-11-28T20:09:09.410Z,32.70
2022-11-28T20:11:38.938Z,32.67
2022-11-28T20:14:09.611Z,30.67
2022-11-28T20:16:39.838Z,33.27
2022-11-28T20:19:08.875Z,35.40
2022-11-28T20:21:42.060Z,38.13
2022-11-28T20:24:12.393Z,35.13
2022-11-28T20:26:43.955Z,33.53
2022-11-28T20:29:16.074Z,31.63
2022-11-28T20:31:46.888Z,30.27
2022-11-28T20:34:16.909Z,30.70
2022-11-28T20:36:47.901Z,31.20
2022-11-28T20:39:17.113Z,31.93
2022-11-28T20:41:46.806Z,34.33
2022-11-28T20:44:15.436Z,73.53
2022-11-28T20:46:44.400Z,76.80
2022-11-28T20:49:13.321Z,58.93
2022-11-28T20:51:44.321Z,52.57
2022-11-28T20:54:15.013Z,35.13
2022-11-28T20:59:33.594Z,31.40
2022-11-28T21:02:02.180Z,26.30
2022-11-28T21:04:30.671Z,26.80
2022-11-28T21:06:59.028Z,25.97
2022-11-28T21:09:28.999Z,26.23
2022-11-28T21:11:58.969Z,27.60
2022-11-28T21:14:29.577Z,29.97
2022-11-28T21:16:59.732Z,30.73
2022-11-28T21:19:28.834Z,87.57
2022-11-28T21:21:57.399Z,136.20
2022-11-28T21:24:25.956Z,210.87
2022-11-28T21:26:55.824Z,62.30
2022-11-28T21:29:25.191Z,33.27
2022-11-28T21:31:54.757Z,30.90
2022-11-28T21:34:23.406Z,30.07
2022-11-28T21:36:51.908Z,30.70
2022-11-28T21:39:22.190Z,30.03
2022-11-28T21:41:52.311Z,27.83
2022-11-28T21:44:22.429Z,27.13
2022-11-28T21:46:51.014Z,28.93
2022-11-28T21:49:19.623Z,33.17
2022-11-28T21:51:48.029Z,30.20
2022-11-28T21:54:16.442Z,29.47
2022-11-28T21:56:44.915Z,29.47
2022-11-28T21:59:13.406Z,29.83
2022-11-28T22:01:43.314Z,28.90
2022-11-28T22:04:12.306Z,28.97
2022-11-28T22:06:40.975Z,27.97
2022-11-28T22:09:10.371Z,27.60
2022-11-28T22:11:39.596Z,27.80
2022-11-28T22:14:08.312Z,28.10
2022-11-28T22:16:36.792Z,28.90
2022-11-28T22:19:06.742Z,29.83
2022-11-28T22:21:54.767Z,31.87
2022-11-28T22:24:24.332Z,30.23
2022-11-28T22:26:57.433Z,31.10
2022-11-28T22:29:26.171Z,30.10
2022-11-28T22:31:54.711Z,31.00
2022-11-28T22:34:24.608Z,32.17
2022-11-28T22:36:53.117Z,32.47
2022-11-28T22:39:21.708Z,30.77
2022-11-28T22:41:50.147Z,29.83
2022-11-28T22:44:18.878Z,29.50
2022-11-28T22:46:47.458Z,28.63
2022-11-28T22:49:15.957Z,28.60
2022-11-28T22:51:45.960Z,29.07
2022-11-28T22:54:14.800Z,30.33
2022-11-28T22:56:43.323Z,30.00
2022-11-28T22:59:14.053Z,28.10
2022-11-28T23:01:43.761Z,27.87
2022-11-28T23:04:12.296Z,27.70
2022-11-28T23:06:40.776Z,26.57
2022-11-28T23:09:13.965Z,27.13
2022-11-28T23:11:42.817Z,26.50
2022-11-28T23:14:14.383Z,27.57
2022-11-28T23:16:44.423Z,26.47
2022-11-28T23:19:15.886Z,26.23
2022-11-28T23:21:47.257Z,26.83
2022-11-28T23:24:19.160Z,26.87
2022-11-28T23:26:49.128Z,27.53
2022-11-28T23:29:18.520Z,27.03
2022-11-28T23:31:48.928Z,28.70
2022-11-28T23:34:17.814Z,28.23
2022-11-28T23:36:47.343Z,61.47
2022-11-28T23:39:19.265Z,105.70
2022-11-28T23:41:54.365Z,52.17
2022-11-28T23:44:22.795Z,147.33
2022-11-28T23:46:51.234Z,46.93
2022-11-28T23:49:20.260Z,39.57
2022-11-28T23:51:48.743Z,62.50
2022-11-28T23:54:18.821Z,66.03
2022-11-28T23:56:50.334Z,56.23
2022-11-28T23:59:21.738Z,40.40
